Eaton, Idaho
Current Conditions -  °F | °C
As of 6:53 AM on Saturday 22 Nov 2014 (Local Time) from KONO Reporting Station
Haze Haze  
Wind Chill: 29°   Ceiling: 11000
Heat Index: 33°   Visibility: 1.5mi
Dew Point: 31°   Wind: 5mph
Humidity: 92%   Direction: 250°WSW
Pressure: 29.74"   Gusts: NA
Location:  44.398°N, 116.943°W
Report Text: KONO 221353Z AUTO 25004KT 1 1/2SM BR SCT044 BKN110 01/M01 A2974 RMK AO2 SNE1254 SLP090 P0000 T00061006
Loading
Personal Weather Stations






























Interactive Weather Map New forecast layout! Learn more

10-Day Weather Forecast

Advertisements
Track Severe Weather on mobile